createdAt,value
2022-11-24T00:01:50.064Z,36.58
2022-11-24T00:04:22.881Z,53.45
2022-11-24T00:06:56.059Z,69.93
2022-11-24T00:09:28.897Z,69.40
2022-11-24T00:12:01.970Z,48.47
2022-11-24T00:14:34.882Z,52.77
2022-11-24T00:17:08.403Z,58.17
2022-11-24T00:19:42.427Z,54.88
2022-11-24T00:22:15.469Z,39.33
2022-11-24T00:24:48.141Z,36.00
2022-11-24T00:27:21.194Z,31.80
2022-11-24T00:29:54.079Z,30.70
2022-11-24T00:32:30.957Z,31.20
2022-11-24T00:35:03.695Z,27.70
2022-11-24T00:37:36.862Z,30.70
2022-11-24T00:40:09.666Z,26.98
2022-11-24T00:42:42.819Z,31.27
2022-11-24T00:45:15.565Z,25.60
2022-11-24T00:47:49.301Z,26.73
2022-11-24T00:50:22.053Z,26.27
2022-11-24T00:52:55.064Z,29.27
2022-11-24T00:55:27.737Z,25.20
2022-11-24T00:58:01.016Z,28.23
2022-11-24T01:00:33.718Z,27.27
2022-11-24T01:03:06.848Z,25.30
2022-11-24T01:05:40.112Z,27.27
2022-11-24T01:08:13.436Z,27.23
2022-11-24T01:10:46.102Z,29.70
2022-11-24T01:13:19.188Z,28.70
2022-11-24T01:15:51.922Z,25.27
2022-11-24T01:18:25.133Z,26.10
2022-11-24T01:20:58.055Z,30.35
2022-11-24T01:23:31.291Z,27.35
2022-11-24T01:26:05.357Z,31.08
2022-11-24T01:28:41.853Z,33.45
2022-11-24T01:31:17.797Z,29.42
2022-11-24T01:33:50.998Z,29.65
2022-11-24T01:36:24.167Z,27.45
2022-11-24T01:38:57.262Z,24.98
2022-11-24T01:41:30.052Z,31.17
2022-11-24T01:44:20.231Z,37.63
2022-11-24T01:46:55.744Z,28.83
2022-11-24T01:49:46.829Z,31.37
2022-11-24T01:52:27.668Z,30.23
2022-11-24T01:55:03.088Z,32.35
2022-11-24T01:57:39.120Z,27.35
2022-11-24T02:00:13.351Z,31.90
2022-11-24T02:02:46.326Z,32.97
2022-11-24T02:05:43.168Z,33.75
2022-11-24T02:08:22.488Z,30.45
2022-11-24T02:10:55.644Z,28.52
2022-11-24T02:13:28.563Z,29.52
2022-11-24T02:16:02.506Z,34.28
2022-11-24T02:18:35.399Z,33.05
2022-11-24T02:21:08.807Z,36.67
2022-11-24T02:23:47.505Z,37.90
2022-11-24T02:26:38.928Z,34.03
2022-11-24T02:29:12.425Z,35.15
2022-11-24T02:31:48.018Z,29.25
2022-11-24T02:34:20.948Z,31.45
2022-11-24T02:36:54.338Z,28.15
2022-11-24T02:39:27.062Z,25.73
2022-11-24T02:42:02.507Z,29.83
2022-11-24T02:44:37.340Z,31.33
2022-11-24T02:47:12.087Z,31.13
2022-11-24T02:49:44.956Z,29.80
2022-11-24T02:52:18.097Z,25.67
2022-11-24T02:54:51.345Z,31.05
2022-11-24T02:57:24.489Z,26.00
2022-11-24T02:59:57.330Z,32.57
2022-11-24T03:02:30.449Z,31.00
2022-11-24T03:05:03.369Z,30.08
2022-11-24T03:07:36.501Z,28.52
2022-11-24T03:10:09.464Z,38.20
2022-11-24T03:12:42.634Z,39.35
2022-11-24T03:15:15.453Z,44.25
2022-11-24T03:17:48.685Z,45.45
2022-11-24T03:20:21.388Z,41.72
2022-11-24T03:22:54.417Z,36.53
2022-11-24T03:25:27.140Z,33.17
2022-11-24T03:28:00.307Z,32.50
2022-11-24T03:30:33.111Z,31.83
2022-11-24T03:33:07.626Z,33.58
2022-11-24T03:35:40.313Z,33.58
2022-11-24T03:38:13.378Z,27.73
2022-11-24T03:40:46.143Z,33.35
2022-11-24T03:43:19.218Z,34.47
2022-11-24T03:45:51.880Z,29.42
2022-11-24T03:48:24.922Z,33.17
2022-11-24T03:50:58.517Z,29.77
2022-11-24T03:53:32.497Z,32.13
2022-11-24T03:56:05.652Z,33.63
2022-11-24T03:58:38.929Z,35.65
2022-11-24T04:01:11.911Z,34.13
2022-11-24T04:03:44.934Z,32.08
2022-11-24T04:06:17.614Z,31.15
2022-11-24T04:08:50.708Z,32.97
2022-11-24T04:11:41.900Z,33.45
2022-11-24T04:14:15.080Z,31.13
2022-11-24T04:16:47.901Z,39.63
2022-11-24T04:19:21.032Z,37.50
2022-11-24T04:21:53.903Z,36.00
2022-11-24T04:24:26.933Z,39.75
2022-11-24T04:26:59.617Z,36.83
2022-11-24T04:29:32.665Z,41.67
2022-11-24T04:32:05.474Z,37.80
2022-11-24T04:34:38.608Z,37.07
2022-11-24T04:37:11.511Z,37.20
2022-11-24T04:39:45.652Z,36.22
2022-11-24T04:42:18.295Z,38.88
2022-11-24T04:44:51.639Z,34.80
2022-11-24T04:47:25.880Z,36.28
2022-11-24T04:49:58.998Z,36.22
2022-11-24T04:52:31.727Z,36.55
2022-11-24T04:55:04.831Z,35.70
2022-11-24T04:57:37.560Z,43.42
2022-11-24T05:00:10.995Z,41.70
2022-11-24T05:02:43.759Z,35.25
2022-11-24T05:05:16.938Z,34.90
2022-11-24T05:07:49.922Z,39.97
2022-11-24T05:10:37.933Z,38.22
2022-11-24T05:13:12.606Z,37.80
2022-11-24T05:15:45.577Z,31.08
2022-11-24T05:18:18.298Z,40.42
2022-11-24T05:20:51.328Z,42.72
2022-11-24T05:23:23.966Z,40.85
2022-11-24T05:26:03.600Z,40.92
2022-11-24T05:28:36.517Z,43.37
2022-11-24T05:31:09.687Z,43.75
2022-11-24T05:33:43.716Z,44.67
2022-11-24T05:36:35.354Z,43.58
2022-11-24T05:39:08.432Z,46.17
2022-11-24T05:41:42.159Z,42.63
2022-11-24T05:44:14.769Z,40.80
2022-11-24T05:46:48.444Z,37.08
2022-11-24T05:49:21.167Z,41.60
2022-11-24T05:51:54.057Z,43.42
2022-11-24T05:54:26.582Z,45.67
2022-11-24T05:56:59.632Z,47.58
2022-11-24T05:59:32.318Z,48.10
2022-11-24T06:02:05.270Z,64.28
2022-11-24T06:04:38.156Z,40.17
2022-11-24T06:07:14.534Z,39.15
2022-11-24T06:09:47.474Z,40.40
2022-11-24T06:12:20.826Z,39.15
2022-11-24T06:14:53.903Z,40.70
2022-11-24T06:17:26.894Z,37.93
2022-11-24T06:19:59.535Z,39.55
2022-11-24T06:22:32.810Z,44.63
2022-11-24T06:25:05.711Z,46.65
2022-11-24T06:27:38.713Z,41.65
2022-11-24T06:30:11.841Z,39.60
2022-11-24T06:32:49.680Z,40.10
2022-11-24T06:35:22.686Z,36.87
2022-11-24T06:37:55.936Z,42.20
2022-11-24T06:40:28.721Z,40.10
2022-11-24T06:43:01.791Z,45.58
2022-11-24T06:45:34.435Z,36.33
2022-11-24T06:48:07.446Z,40.70
2022-11-24T06:50:39.991Z,40.80
2022-11-24T06:53:13.034Z,40.58
2022-11-24T06:55:46.707Z,38.38
2022-11-24T06:58:20.518Z,42.50
2022-11-24T07:00:53.468Z,40.65
2022-11-24T07:03:26.742Z,42.08
2022-11-24T07:05:59.815Z,43.60
2022-11-24T07:08:32.802Z,37.60
2022-11-24T07:11:06.556Z,44.53
2022-11-24T07:13:39.502Z,43.10
2022-11-24T07:16:16.461Z,37.55
2022-11-24T07:18:51.518Z,39.95
2022-11-24T07:21:25.248Z,39.85
2022-11-24T07:23:58.420Z,43.75
2022-11-24T07:26:31.135Z,38.93
2022-11-24T07:29:05.686Z,57.80
2022-11-24T07:31:38.541Z,47.90
2022-11-24T07:34:11.588Z,40.95
2022-11-24T07:36:45.452Z,55.95
2022-11-24T07:39:18.587Z,43.47
2022-11-24T07:41:51.186Z,46.53
2022-11-24T07:44:24.090Z,41.47
2022-11-24T07:46:56.908Z,46.53
2022-11-24T07:49:30.054Z,47.92
2022-11-24T07:52:02.652Z,41.22
2022-11-24T07:54:35.719Z,41.08
2022-11-24T07:57:08.498Z,42.88
2022-11-24T07:59:41.629Z,37.78
2022-11-24T08:02:14.240Z,41.50
2022-11-24T08:04:47.207Z,43.60
2022-11-24T08:07:20.100Z,45.05
2022-11-24T08:09:53.271Z,43.92
2022-11-24T08:12:26.049Z,43.55
2022-11-24T08:14:59.020Z,42.55
2022-11-24T08:17:31.862Z,44.60
2022-11-24T08:20:04.992Z,45.08
2022-11-24T08:22:37.929Z,47.33
2022-11-24T08:25:11.078Z,42.90
2022-11-24T08:27:43.654Z,49.08
2022-11-24T08:30:16.954Z,51.65
2022-11-24T08:32:49.509Z,53.85
2022-11-24T08:35:22.567Z,49.73
2022-11-24T08:37:57.294Z,49.38
2022-11-24T08:40:33.242Z,48.47
2022-11-24T08:43:05.884Z,55.22
2022-11-24T08:45:41.702Z,57.45
2022-11-24T08:48:14.618Z,44.83
2022-11-24T08:50:48.008Z,62.03
2022-11-24T08:53:20.644Z,51.70
2022-11-24T08:55:53.673Z,47.92
2022-11-24T08:58:26.249Z,48.30
2022-11-24T09:01:06.019Z,48.85
2022-11-24T09:03:42.353Z,50.95
2022-11-24T09:06:20.339Z,50.95
2022-11-24T09:08:56.042Z,52.92
2022-11-24T09:11:29.581Z,49.75
2022-11-24T09:14:02.394Z,49.40
2022-11-24T09:16:35.527Z,46.30
2022-11-24T09:19:08.508Z,43.28
2022-11-24T09:21:41.422Z,50.33
2022-11-24T09:24:14.022Z,46.75
2022-11-24T09:26:47.855Z,53.63
2022-11-24T09:29:21.097Z,47.08
2022-11-24T09:31:54.033Z,42.70
2022-11-24T09:34:26.600Z,52.03
2022-11-24T09:36:59.959Z,43.10
2022-11-24T09:39:32.899Z,45.60
2022-11-24T09:42:26.339Z,46.93
2022-11-24T09:45:07.384Z,47.87
2022-11-24T09:47:54.684Z,48.05
2022-11-24T09:50:33.823Z,52.87
2022-11-24T09:53:11.584Z,46.60
2022-11-24T09:55:48.901Z,47.03
2022-11-24T09:58:31.781Z,49.63
2022-11-24T10:01:13.239Z,54.65
2022-11-24T10:03:48.723Z,51.95
2022-11-24T10:06:30.796Z,45.97
2022-11-24T10:09:24.229Z,52.47
2022-11-24T10:12:15.595Z,53.15
2022-11-24T10:15:07.504Z,53.88
2022-11-24T10:17:48.162Z,42.55
2022-11-24T10:20:24.285Z,44.03
2022-11-24T10:23:15.365Z,51.47
2022-11-24T10:25:48.320Z,44.00
2022-11-24T10:28:20.897Z,50.17
2022-11-24T10:30:55.244Z,50.42
2022-11-24T10:33:30.780Z,51.30
2022-11-24T10:36:08.026Z,44.25
2022-11-24T10:38:40.751Z,51.33
2022-11-24T10:41:17.069Z,42.75
2022-11-24T10:43:50.709Z,46.50
2022-11-24T10:46:25.542Z,42.67
2022-11-24T10:49:04.120Z,51.53
2022-11-24T10:51:42.967Z,45.78
2022-11-24T10:54:24.560Z,40.08
2022-11-24T10:56:58.196Z,35.70
2022-11-24T10:59:40.926Z,39.22
2022-11-24T11:02:34.264Z,43.95
2022-11-24T11:05:25.715Z,43.72
2022-11-24T11:08:20.104Z,43.03
2022-11-24T11:11:13.259Z,44.53
2022-11-24T11:14:01.559Z,39.17
2022-11-24T11:16:39.377Z,37.03
2022-11-24T11:19:55.469Z,41.58
2022-11-24T11:22:30.308Z,37.70
2022-11-24T11:25:22.486Z,40.05
2022-11-24T11:28:17.972Z,45.53
2022-11-24T11:31:20.293Z,38.45
2022-11-24T11:34:08.323Z,40.70
2022-11-24T11:36:47.901Z,41.93
2022-11-24T11:39:31.705Z,45.08
2022-11-24T11:42:53.763Z,46.30
2022-11-24T11:45:18.707Z,43.03
2022-11-24T11:47:51.818Z,49.70
2022-11-24T11:50:26.075Z,45.80
2022-11-24T11:53:08.198Z,47.65
2022-11-24T11:56:01.940Z,49.60
2022-11-24T11:58:38.581Z,54.05
2022-11-24T12:01:23.282Z,46.38
2022-11-24T12:04:05.464Z,51.20
2022-11-24T12:06:57.121Z,52.40
2022-11-24T12:09:54.682Z,55.90
2022-11-24T12:12:27.350Z,52.47
2022-11-24T12:15:11.031Z,44.45
2022-11-24T12:18:01.685Z,45.30
2022-11-24T12:20:45.777Z,50.65
2022-11-24T12:23:18.323Z,46.22
2022-11-24T12:26:11.377Z,52.00
2022-11-24T12:29:09.965Z,56.55
2022-11-24T12:31:51.884Z,47.22
2022-11-24T12:34:30.937Z,46.80
2022-11-24T12:37:22.754Z,48.93
2022-11-24T12:40:01.166Z,47.50
2022-11-24T12:42:37.033Z,43.67
2022-11-24T12:45:09.515Z,50.80
2022-11-24T12:47:51.538Z,48.35
2022-11-24T12:50:29.026Z,47.20
2022-11-24T12:53:15.940Z,45.72
2022-11-24T12:55:49.066Z,47.78
2022-11-24T12:58:28.226Z,43.92
2022-11-24T13:01:17.038Z,48.88
2022-11-24T13:03:51.226Z,43.60
2022-11-24T13:06:28.259Z,45.95
2022-11-24T13:09:11.162Z,49.47
2022-11-24T13:11:48.609Z,49.28
2022-11-24T13:14:38.007Z,46.63
2022-11-24T13:17:35.190Z,50.30
2022-11-24T13:20:21.594Z,43.67
2022-11-24T13:22:54.648Z,50.22
2022-11-24T13:25:31.805Z,42.65
2022-11-24T13:28:06.895Z,45.75
2022-11-24T13:30:46.072Z,50.72
2022-11-24T13:33:27.599Z,41.00
2022-11-24T13:36:04.469Z,40.42
2022-11-24T13:38:40.000Z,41.72
2022-11-24T13:41:31.824Z,51.60
2022-11-24T13:44:16.407Z,55.28
2022-11-24T13:47:01.587Z,58.17
2022-11-24T13:49:42.290Z,56.38
2022-11-24T13:52:33.923Z,94.38
2022-11-24T13:55:12.603Z,137.43
2022-11-24T13:57:46.651Z,137.65
2022-11-24T14:00:19.361Z,209.23
2022-11-24T14:02:53.559Z,102.47
2022-11-24T14:05:39.388Z,56.70
2022-11-24T14:08:16.896Z,126.13
2022-11-24T14:10:50.342Z,66.90
2022-11-24T14:13:27.671Z,78.45
2022-11-24T14:16:01.548Z,69.38
2022-11-24T14:18:35.209Z,191.33
2022-11-24T14:21:28.451Z,154.73
2022-11-24T14:24:12.910Z,61.13
2022-11-24T14:26:46.567Z,67.95
2022-11-24T14:29:21.660Z,69.63
2022-11-24T14:31:55.277Z,59.08
2022-11-24T14:34:29.235Z,56.33
2022-11-24T14:37:02.317Z,54.20
2022-11-24T14:39:40.535Z,52.42
2022-11-24T14:42:27.599Z,51.75
2022-11-24T14:45:01.394Z,58.10
2022-11-24T14:47:36.634Z,48.55
2022-11-24T14:50:15.654Z,46.40
2022-11-24T14:53:10.952Z,47.05
2022-11-24T14:55:43.998Z,50.38
2022-11-24T14:58:20.884Z,65.57
2022-11-24T15:01:19.830Z,60.33
2022-11-24T15:04:13.032Z,50.78
2022-11-24T15:07:05.245Z,52.70
2022-11-24T15:09:43.742Z,60.90
2022-11-24T15:12:31.336Z,54.23
2022-11-24T15:15:05.641Z,53.05
2022-11-24T15:17:45.335Z,57.10
2022-11-24T15:20:38.546Z,61.30
2022-11-24T15:23:23.239Z,49.40
2022-11-24T15:26:16.287Z,62.65
2022-11-24T15:28:49.552Z,50.83
2022-11-24T15:31:22.144Z,65.00
2022-11-24T15:33:55.067Z,70.90
2022-11-24T15:36:27.597Z,69.70
2022-11-24T15:39:00.826Z,88.75
2022-11-24T15:41:34.331Z,91.10
2022-11-24T15:44:08.162Z,87.33
2022-11-24T15:46:40.960Z,75.03
2022-11-24T15:49:14.199Z,72.85
2022-11-24T15:51:47.386Z,83.28
2022-11-24T15:54:20.378Z,106.40
2022-11-24T15:56:52.992Z,97.70
2022-11-24T15:59:26.095Z,91.68
2022-11-24T16:02:00.267Z,91.97
2022-11-24T16:04:33.930Z,76.27
2022-11-24T16:07:07.387Z,81.43
2022-11-24T16:09:40.734Z,94.93
2022-11-24T16:12:13.392Z,92.30
2022-11-24T16:14:46.219Z,84.45
2022-11-24T16:17:18.812Z,87.43
2022-11-24T16:20:00.125Z,68.30
2022-11-24T16:22:33.682Z,61.80
2022-11-24T16:25:06.813Z,66.47
2022-11-24T16:27:39.377Z,63.72
2022-11-24T16:30:13.248Z,62.15
2022-11-24T16:32:45.787Z,74.93
2022-11-24T16:35:19.435Z,79.68
2022-11-24T16:37:52.141Z,95.57
2022-11-24T16:40:25.326Z,80.55
2022-11-24T16:42:58.680Z,87.45
2022-11-24T16:45:32.106Z,84.63
2022-11-24T16:48:04.933Z,78.88
2022-11-24T16:50:38.735Z,86.85
2022-11-24T16:53:11.353Z,90.78
2022-11-24T16:55:44.379Z,88.90
2022-11-24T16:58:16.990Z,93.43
2022-11-24T17:00:50.274Z,107.15
2022-11-24T17:03:22.867Z,87.25
2022-11-24T17:05:59.162Z,99.20
2022-11-24T17:08:32.546Z,98.53
2022-11-24T17:11:08.111Z,95.80
2022-11-24T17:13:40.941Z,78.93
2022-11-24T17:16:15.211Z,70.43
2022-11-24T17:18:48.286Z,54.78
2022-11-24T17:21:22.679Z,58.15
2022-11-24T17:23:56.212Z,54.70
2022-11-24T17:26:29.445Z,60.25
2022-11-24T17:29:02.584Z,59.85
2022-11-24T17:31:40.573Z,55.72
2022-11-24T17:34:13.464Z,57.08
2022-11-24T17:36:46.529Z,63.03
2022-11-24T17:39:24.546Z,64.85
2022-11-24T17:41:58.118Z,76.63
2022-11-24T17:44:30.985Z,78.57
2022-11-24T17:47:04.091Z,83.82
2022-11-24T17:49:36.711Z,86.90
2022-11-24T17:52:09.969Z,86.32
2022-11-24T17:54:56.544Z,75.03
2022-11-24T17:57:29.852Z,93.55
2022-11-24T18:00:02.661Z,83.07
2022-11-24T18:02:45.476Z,87.18
2022-11-24T18:05:18.426Z,91.65
2022-11-24T18:07:51.404Z,100.22
2022-11-24T18:10:24.076Z,97.40
2022-11-24T18:12:59.365Z,98.15
2022-11-24T18:15:35.285Z,99.85
2022-11-24T18:18:08.435Z,101.10
2022-11-24T18:20:41.025Z,112.28
2022-11-24T18:23:14.134Z,94.90
2022-11-24T18:25:52.573Z,82.95
2022-11-24T18:28:26.077Z,74.43
2022-11-24T18:31:02.363Z,71.97
2022-11-24T18:33:39.008Z,75.60
2022-11-24T18:36:16.186Z,62.58
2022-11-24T18:38:50.026Z,61.95
2022-11-24T18:41:22.793Z,59.78
2022-11-24T18:43:56.812Z,56.45
2022-11-24T18:46:30.930Z,60.60
2022-11-24T18:49:05.104Z,56.05
2022-11-24T18:51:38.515Z,71.20
2022-11-24T18:54:11.691Z,70.45
2022-11-24T18:56:45.113Z,65.40
2022-11-24T18:59:18.412Z,61.65
2022-11-24T19:01:51.137Z,74.70
2022-11-24T19:04:25.295Z,58.63
2022-11-24T19:06:57.939Z,61.25
2022-11-24T19:09:31.112Z,55.58
2022-11-24T19:12:04.237Z,64.47
2022-11-24T19:14:37.422Z,98.03
2022-11-24T19:17:09.995Z,85.00
2022-11-24T19:19:43.291Z,102.25
2022-11-24T19:22:16.270Z,111.10
2022-11-24T19:24:51.114Z,87.50
2022-11-24T19:27:23.994Z,104.63
2022-11-24T19:29:57.087Z,97.88
2022-11-24T19:32:31.663Z,83.15
2022-11-24T19:35:04.826Z,75.03
2022-11-24T19:37:37.646Z,83.70
2022-11-24T19:40:10.771Z,64.32
2022-11-24T19:42:43.382Z,63.55
2022-11-24T19:45:16.433Z,73.45
2022-11-24T19:47:48.956Z,74.68
2022-11-24T19:50:21.898Z,89.03
2022-11-24T19:52:54.892Z,94.53
2022-11-24T19:55:27.801Z,90.43
2022-11-24T19:58:00.419Z,97.07
2022-11-24T20:00:33.519Z,76.63
2022-11-24T20:03:06.362Z,78.68
2022-11-24T20:05:39.454Z,77.00
2022-11-24T20:08:12.368Z,79.70
2022-11-24T20:10:45.513Z,74.82
2022-11-24T20:13:18.071Z,80.40
2022-11-24T20:15:53.211Z,87.38
2022-11-24T20:18:27.473Z,97.57
2022-11-24T20:21:07.496Z,97.10
2022-11-24T20:23:40.660Z,103.32
2022-11-24T20:26:19.784Z,104.15
2022-11-24T20:28:53.963Z,107.82
2022-11-24T20:31:28.986Z,107.28
2022-11-24T20:34:02.479Z,117.78
2022-11-24T20:36:36.517Z,114.32
2022-11-24T20:39:12.716Z,127.00
2022-11-24T20:41:47.384Z,130.97
2022-11-24T20:44:21.786Z,142.15
2022-11-24T20:46:55.931Z,116.60
2022-11-24T20:49:29.247Z,123.17
2022-11-24T20:52:02.440Z,109.77
2022-11-24T20:54:35.507Z,99.37
2022-11-24T20:57:08.501Z,88.93
2022-11-24T20:59:41.067Z,87.13
2022-11-24T21:02:14.114Z,90.93
2022-11-24T21:04:47.027Z,99.32
2022-11-24T21:07:19.958Z,100.07
2022-11-24T21:09:53.116Z,97.30
2022-11-24T21:12:26.295Z,94.73
2022-11-24T21:14:59.145Z,110.05
2022-11-24T21:17:32.978Z,116.18
2022-11-24T21:20:06.032Z,105.82
2022-11-24T21:22:40.430Z,99.35
2022-11-24T21:25:12.942Z,95.63
2022-11-24T21:27:46.078Z,86.00
2022-11-24T21:30:18.548Z,95.15
2022-11-24T21:32:51.882Z,87.32
2022-11-24T21:35:26.255Z,100.63
2022-11-24T21:38:00.245Z,90.70
2022-11-24T21:40:32.760Z,99.32
2022-11-24T21:43:05.734Z,92.22
2022-11-24T21:45:38.337Z,108.90
2022-11-24T21:48:11.308Z,105.82
2022-11-24T21:50:43.856Z,111.32
2022-11-24T21:53:16.769Z,114.97
2022-11-24T21:55:59.525Z,99.68
2022-11-24T21:58:33.190Z,98.43
2022-11-24T22:01:09.095Z,92.03
2022-11-24T22:03:42.386Z,93.93
2022-11-24T22:06:15.799Z,103.57
2022-11-24T22:08:49.238Z,110.45
2022-11-24T22:11:23.159Z,88.25
2022-11-24T22:13:56.203Z,89.63
2022-11-24T22:16:28.828Z,97.93
2022-11-24T22:19:01.911Z,113.32
2022-11-24T22:21:35.040Z,105.55
2022-11-24T22:24:08.191Z,107.63
2022-11-24T22:26:40.809Z,96.18
2022-11-24T22:29:13.819Z,86.55
2022-11-24T22:31:46.440Z,78.35
2022-11-24T22:34:19.296Z,69.20
2022-11-24T22:36:51.798Z,73.38
2022-11-24T22:39:24.728Z,68.30
2022-11-24T22:41:57.259Z,66.85
2022-11-24T22:44:30.243Z,59.47
2022-11-24T22:47:02.845Z,65.65
2022-11-24T22:49:35.779Z,59.58
2022-11-24T22:52:08.447Z,65.25
2022-11-24T22:54:41.632Z,62.00
2022-11-24T22:57:14.161Z,61.72
2022-11-24T22:59:47.093Z,65.13
2022-11-24T23:02:19.637Z,65.68
2022-11-24T23:04:52.761Z,64.28
2022-11-24T23:07:25.470Z,57.15
2022-11-24T23:09:58.619Z,58.17
2022-11-24T23:12:31.241Z,69.28
2022-11-24T23:15:04.230Z,63.07
2022-11-24T23:17:37.292Z,51.90
2022-11-24T23:20:10.574Z,47.88
2022-11-24T23:22:43.166Z,38.67
2022-11-24T23:25:16.394Z,44.53
2022-11-24T23:27:49.080Z,45.17
2022-11-24T23:30:22.017Z,45.42
2022-11-24T23:32:54.761Z,44.08
2022-11-24T23:35:27.667Z,42.20
2022-11-24T23:38:07.470Z,41.72
2022-11-24T23:40:41.173Z,45.47
2022-11-24T23:43:13.753Z,43.38
2022-11-24T23:45:46.734Z,41.03
2022-11-24T23:48:20.628Z,37.83
2022-11-24T23:50:54.976Z,36.92
2022-11-24T23:53:30.987Z,42.42
2022-11-24T23:56:03.947Z,44.95
2022-11-24T23:58:36.538Z,41.38
